sensor_id;sensor_type;location;lat;lon;timestamp;P1;durP1;ratioP1;P2;durP2;ratioP2
70433;SDS011;57876;47.792;12.960;2023-02-15T00:00:06;5.93;;;2.50;;
70433;SDS011;57876;47.792;12.960;2023-02-15T00:02:34;6.25;;;2.40;;
70433;SDS011;57876;47.792;12.960;2023-02-15T00:04:58;5.87;;;2.30;;
70433;SDS011;57876;47.792;12.960;2023-02-15T00:07:23;5.85;;;2.33;;
70433;SDS011;57876;47.792;12.960;2023-02-15T00:09:47;6.03;;;2.33;;
70433;SDS011;57876;47.792;12.960;2023-02-15T00:12:13;6.13;;;2.55;;
70433;SDS011;57876;47.792;12.960;2023-02-15T00:14:38;5.77;;;2.27;;
70433;SDS011;57876;47.792;12.960;2023-02-15T00:17:03;6.15;;;2.35;;
70433;SDS011;57876;47.792;12.960;2023-02-15T00:19:27;6.50;;;2.30;;
70433;SDS011;57876;47.792;12.960;2023-02-15T00:21:52;6.50;;;2.73;;
70433;SDS011;57876;47.792;12.960;2023-02-15T00:24:17;6.57;;;2.77;;
70433;SDS011;57876;47.792;12.960;2023-02-15T00:26:43;7.53;;;2.70;;
70433;SDS011;57876;47.792;12.960;2023-02-15T00:29:08;5.63;;;2.40;;
70433;SDS011;57876;47.792;12.960;2023-02-15T00:31:33;6.22;;;2.42;;
70433;SDS011;57876;47.792;12.960;2023-02-15T00:34:05;6.50;;;2.90;;
70433;SDS011;57876;47.792;12.960;2023-02-15T00:36:29;6.72;;;2.72;;
70433;SDS011;57876;47.792;12.960;2023-02-15T00:38:54;6.53;;;2.70;;
70433;SDS011;57876;47.792;12.960;2023-02-15T00:41:18;5.82;;;2.53;;
70433;SDS011;57876;47.792;12.960;2023-02-15T00:43:43;6.03;;;2.27;;
70433;SDS011;57876;47.792;12.960;2023-02-15T00:46:07;6.37;;;2.60;;
70433;SDS011;57876;47.792;12.960;2023-02-15T00:48:31;6.53;;;2.70;;
70433;SDS011;57876;47.792;12.960;2023-02-15T00:50:56;6.83;;;2.77;;
70433;SDS011;57876;47.792;12.960;2023-02-15T00:53:22;6.30;;;2.45;;
70433;SDS011;57876;47.792;12.960;2023-02-15T00:55:49;6.18;;;2.45;;
70433;SDS011;57876;47.792;12.960;2023-02-15T00:58:14;5.97;;;2.87;;
70433;SDS011;57876;47.792;12.960;2023-02-15T01:00:38;6.10;;;2.65;;
70433;SDS011;57876;47.792;12.960;2023-02-15T01:03:05;7.03;;;2.47;;
70433;SDS011;57876;47.792;12.960;2023-02-15T01:05:29;6.63;;;2.80;;
70433;SDS011;57876;47.792;12.960;2023-02-15T01:07:55;5.95;;;2.58;;
70433;SDS011;57876;47.792;12.960;2023-02-15T01:10:20;6.45;;;2.70;;
70433;SDS011;57876;47.792;12.960;2023-02-15T01:12:44;5.73;;;2.63;;
70433;SDS011;57876;47.792;12.960;2023-02-15T01:15:09;6.27;;;2.67;;
70433;SDS011;57876;47.792;12.960;2023-02-15T01:17:33;6.30;;;2.50;;
70433;SDS011;57876;47.792;12.960;2023-02-15T01:19:58;6.80;;;2.50;;
70433;SDS011;57876;47.792;12.960;2023-02-15T01:22:23;14.77;;;5.72;;
70433;SDS011;57876;47.792;12.960;2023-02-15T01:24:48;5.87;;;2.60;;
70433;SDS011;57876;47.792;12.960;2023-02-15T01:27:14;6.57;;;2.75;;
70433;SDS011;57876;47.792;12.960;2023-02-15T01:29:38;6.53;;;2.60;;
70433;SDS011;57876;47.792;12.960;2023-02-15T01:32:02;6.43;;;2.57;;
70433;SDS011;57876;47.792;12.960;2023-02-15T01:34:28;6.13;;;2.60;;
70433;SDS011;57876;47.792;12.960;2023-02-15T01:36:53;6.05;;;2.50;;
70433;SDS011;57876;47.792;12.960;2023-02-15T01:39:17;6.10;;;2.60;;
70433;SDS011;57876;47.792;12.960;2023-02-15T01:41:41;6.07;;;2.67;;
70433;SDS011;57876;47.792;12.960;2023-02-15T01:47:38;5.77;;;2.23;;
70433;SDS011;57876;47.792;12.960;2023-02-15T01:50:34;6.25;;;2.58;;
70433;SDS011;57876;47.792;12.960;2023-02-15T01:53:06;5.70;;;2.45;;
70433;SDS011;57876;47.792;12.960;2023-02-15T01:55:33;6.05;;;2.92;;
70433;SDS011;57876;47.792;12.960;2023-02-15T01:58:00;6.50;;;2.42;;
70433;SDS011;57876;47.792;12.960;2023-02-15T02:00:25;6.10;;;2.57;;
70433;SDS011;57876;47.792;12.960;2023-02-15T02:02:50;6.60;;;2.60;;
70433;SDS011;57876;47.792;12.960;2023-02-15T02:05:19;5.60;;;2.40;;
70433;SDS011;57876;47.792;12.960;2023-02-15T02:07:44;6.03;;;2.50;;
70433;SDS011;57876;47.792;12.960;2023-02-15T02:10:13;5.82;;;2.60;;
70433;SDS011;57876;47.792;12.960;2023-02-15T02:12:40;6.73;;;2.40;;
70433;SDS011;57876;47.792;12.960;2023-02-15T02:15:07;5.82;;;2.38;;
70433;SDS011;57876;47.792;12.960;2023-02-15T02:33:48;5.77;;;2.40;;
70433;SDS011;57876;47.792;12.960;2023-02-15T02:49:12;6.47;;;2.40;;
70433;SDS011;57876;47.792;12.960;2023-02-15T02:51:36;5.82;;;2.17;;
70433;SDS011;57876;47.792;12.960;2023-02-15T02:54:02;5.67;;;2.27;;
70433;SDS011;57876;47.792;12.960;2023-02-15T02:59:07;5.80;;;2.30;;
70433;SDS011;57876;47.792;12.960;2023-02-15T03:04:22;5.32;;;1.90;;
70433;SDS011;57876;47.792;12.960;2023-02-15T03:06:54;5.45;;;2.15;;
70433;SDS011;57876;47.792;12.960;2023-02-15T03:09:25;5.63;;;2.13;;
70433;SDS011;57876;47.792;12.960;2023-02-15T03:12:05;6.80;;;2.50;;
70433;SDS011;57876;47.792;12.960;2023-02-15T03:14:30;5.80;;;2.40;;
70433;SDS011;57876;47.792;12.960;2023-02-15T03:16:54;5.77;;;2.30;;
70433;SDS011;57876;47.792;12.960;2023-02-15T03:19:24;5.95;;;2.30;;
70433;SDS011;57876;47.792;12.960;2023-02-15T03:21:58;5.40;;;2.17;;
70433;SDS011;57876;47.792;12.960;2023-02-15T03:24:37;5.30;;;1.73;;
70433;SDS011;57876;47.792;12.960;2023-02-15T03:27:07;5.43;;;2.13;;
70433;SDS011;57876;47.792;12.960;2023-02-15T03:29:41;5.90;;;2.20;;
70433;SDS011;57876;47.792;12.960;2023-02-15T03:32:07;5.43;;;2.00;;
70433;SDS011;57876;47.792;12.960;2023-02-15T03:34:35;5.55;;;1.95;;
70433;SDS011;57876;47.792;12.960;2023-02-15T03:37:00;5.45;;;2.10;;
70433;SDS011;57876;47.792;12.960;2023-02-15T03:39:40;5.87;;;2.13;;
70433;SDS011;57876;47.792;12.960;2023-02-15T03:42:13;5.57;;;2.05;;
70433;SDS011;57876;47.792;12.960;2023-02-15T03:45:02;5.85;;;2.28;;
70433;SDS011;57876;47.792;12.960;2023-02-15T03:47:47;5.28;;;2.10;;
70433;SDS011;57876;47.792;12.960;2023-02-15T03:50:26;6.00;;;2.30;;
70433;SDS011;57876;47.792;12.960;2023-02-15T03:53:13;5.43;;;2.10;;
70433;SDS011;57876;47.792;12.960;2023-02-15T03:55:39;5.22;;;1.90;;
70433;SDS011;57876;47.792;12.960;2023-02-15T03:58:03;5.30;;;1.90;;
70433;SDS011;57876;47.792;12.960;2023-02-15T04:00:52;5.80;;;2.17;;
70433;SDS011;57876;47.792;12.960;2023-02-15T04:03:40;5.95;;;2.28;;
70433;SDS011;57876;47.792;12.960;2023-02-15T04:06:09;5.75;;;2.22;;
70433;SDS011;57876;47.792;12.960;2023-02-15T04:08:33;5.40;;;2.20;;
70433;SDS011;57876;47.792;12.960;2023-02-15T04:11:16;5.07;;;1.90;;
70433;SDS011;57876;47.792;12.960;2023-02-15T04:13:40;5.40;;;2.20;;
70433;SDS011;57876;47.792;12.960;2023-02-15T04:16:05;5.65;;;2.20;;
70433;SDS011;57876;47.792;12.960;2023-02-15T04:18:30;6.30;;;2.47;;
70433;SDS011;57876;47.792;12.960;2023-02-15T04:21:14;5.80;;;2.10;;
70433;SDS011;57876;47.792;12.960;2023-02-15T04:23:57;5.75;;;2.05;;
70433;SDS011;57876;47.792;12.960;2023-02-15T04:26:40;5.53;;;1.90;;
70433;SDS011;57876;47.792;12.960;2023-02-15T04:29:05;6.00;;;2.33;;
70433;SDS011;57876;47.792;12.960;2023-02-15T04:31:29;6.07;;;2.30;;
70433;SDS011;57876;47.792;12.960;2023-02-15T04:33:53;6.93;;;2.30;;
70433;SDS011;57876;47.792;12.960;2023-02-15T04:36:18;5.33;;;2.00;;
70433;SDS011;57876;47.792;12.960;2023-02-15T04:38:42;5.67;;;2.30;;
70433;SDS011;57876;47.792;12.960;2023-02-15T04:41:06;5.27;;;2.10;;
70433;SDS011;57876;47.792;12.960;2023-02-15T04:43:31;5.65;;;2.28;;
70433;SDS011;57876;47.792;12.960;2023-02-15T04:45:56;5.37;;;2.10;;
70433;SDS011;57876;47.792;12.960;2023-02-15T04:48:20;5.30;;;2.00;;
70433;SDS011;57876;47.792;12.960;2023-02-15T04:50:44;5.93;;;2.30;;
70433;SDS011;57876;47.792;12.960;2023-02-15T04:53:09;5.40;;;2.03;;
70433;SDS011;57876;47.792;12.960;2023-02-15T04:55:34;6.40;;;2.35;;
70433;SDS011;57876;47.792;12.960;2023-02-15T04:57:58;5.50;;;2.17;;
70433;SDS011;57876;47.792;12.960;2023-02-15T05:00:22;5.97;;;2.30;;
70433;SDS011;57876;47.792;12.960;2023-02-15T05:02:47;6.43;;;2.40;;
70433;SDS011;57876;47.792;12.960;2023-02-15T05:05:11;5.77;;;2.13;;
70433;SDS011;57876;47.792;12.960;2023-02-15T05:07:36;5.53;;;2.22;;
70433;SDS011;57876;47.792;12.960;2023-02-15T05:10:01;6.17;;;2.30;;
70433;SDS011;57876;47.792;12.960;2023-02-15T05:12:25;5.50;;;2.20;;
70433;SDS011;57876;47.792;12.960;2023-02-15T05:14:50;5.27;;;2.03;;
70433;SDS011;57876;47.792;12.960;2023-02-15T05:17:14;5.83;;;2.30;;
70433;SDS011;57876;47.792;12.960;2023-02-15T05:19:38;5.80;;;2.10;;
70433;SDS011;57876;47.792;12.960;2023-02-15T05:22:03;5.30;;;1.93;;
70433;SDS011;57876;47.792;12.960;2023-02-15T05:24:27;5.40;;;2.00;;
70433;SDS011;57876;47.792;12.960;2023-02-15T05:27:10;5.63;;;2.20;;
70433;SDS011;57876;47.792;12.960;2023-02-15T05:29:54;5.80;;;2.03;;
70433;SDS011;57876;47.792;12.960;2023-02-15T05:32:18;5.47;;;2.20;;
70433;SDS011;57876;47.792;12.960;2023-02-15T05:34:42;6.10;;;1.97;;
70433;SDS011;57876;47.792;12.960;2023-02-15T05:37:07;6.00;;;2.30;;
70433;SDS011;57876;47.792;12.960;2023-02-15T05:39:32;5.65;;;2.15;;
70433;SDS011;57876;47.792;12.960;2023-02-15T05:41:59;6.10;;;2.33;;
70433;SDS011;57876;47.792;12.960;2023-02-15T05:44:24;6.15;;;2.47;;
70433;SDS011;57876;47.792;12.960;2023-02-15T05:46:48;5.93;;;2.50;;
70433;SDS011;57876;47.792;12.960;2023-02-15T05:49:13;5.67;;;2.27;;
70433;SDS011;57876;47.792;12.960;2023-02-15T05:51:37;5.57;;;2.27;;
70433;SDS011;57876;47.792;12.960;2023-02-15T05:54:01;5.30;;;2.10;;
70433;SDS011;57876;47.792;12.960;2023-02-15T05:56:26;5.57;;;2.43;;
70433;SDS011;57876;47.792;12.960;2023-02-15T05:58:52;5.60;;;2.37;;
70433;SDS011;57876;47.792;12.960;2023-02-15T06:01:18;5.40;;;2.40;;
70433;SDS011;57876;47.792;12.960;2023-02-15T06:03:45;6.32;;;2.50;;
70433;SDS011;57876;47.792;12.960;2023-02-15T06:06:10;5.50;;;2.17;;
70433;SDS011;57876;47.792;12.960;2023-02-15T06:08:35;5.50;;;2.20;;
70433;SDS011;57876;47.792;12.960;2023-02-15T06:11:00;6.18;;;2.40;;
70433;SDS011;57876;47.792;12.960;2023-02-15T06:13:24;6.00;;;2.53;;
70433;SDS011;57876;47.792;12.960;2023-02-15T06:15:49;6.50;;;2.40;;
70433;SDS011;57876;47.792;12.960;2023-02-15T06:18:13;5.83;;;2.50;;
70433;SDS011;57876;47.792;12.960;2023-02-15T06:20:38;5.50;;;2.10;;
70433;SDS011;57876;47.792;12.960;2023-02-15T06:23:02;5.93;;;2.43;;
70433;SDS011;57876;47.792;12.960;2023-02-15T06:25:26;6.17;;;2.70;;
70433;SDS011;57876;47.792;12.960;2023-02-15T06:27:51;6.60;;;2.70;;
70433;SDS011;57876;47.792;12.960;2023-02-15T06:30:15;6.87;;;2.50;;
70433;SDS011;57876;47.792;12.960;2023-02-15T06:32:40;6.33;;;2.40;;
70433;SDS011;57876;47.792;12.960;2023-02-15T06:35:05;5.70;;;2.40;;
70433;SDS011;57876;47.792;12.960;2023-02-15T06:37:29;6.03;;;2.30;;
70433;SDS011;57876;47.792;12.960;2023-02-15T06:39:53;6.20;;;2.40;;
70433;SDS011;57876;47.792;12.960;2023-02-15T06:42:18;6.17;;;2.40;;
70433;SDS011;57876;47.792;12.960;2023-02-15T06:44:42;7.13;;;2.50;;
70433;SDS011;57876;47.792;12.960;2023-02-15T06:47:07;6.60;;;2.10;;
70433;SDS011;57876;47.792;12.960;2023-02-15T06:49:31;6.27;;;2.50;;
70433;SDS011;57876;47.792;12.960;2023-02-15T06:51:55;6.03;;;2.53;;
70433;SDS011;57876;47.792;12.960;2023-02-15T06:54:20;6.77;;;2.70;;
70433;SDS011;57876;47.792;12.960;2023-02-15T06:56:44;5.67;;;2.40;;
70433;SDS011;57876;47.792;12.960;2023-02-15T06:59:10;6.22;;;2.85;;
70433;SDS011;57876;47.792;12.960;2023-02-15T07:01:34;6.27;;;2.67;;
70433;SDS011;57876;47.792;12.960;2023-02-15T07:04:00;6.47;;;2.78;;
70433;SDS011;57876;47.792;12.960;2023-02-15T07:06:25;6.13;;;2.70;;
70433;SDS011;57876;47.792;12.960;2023-02-15T07:08:49;6.63;;;2.40;;
70433;SDS011;57876;47.792;12.960;2023-02-15T07:11:13;5.93;;;2.47;;
70433;SDS011;57876;47.792;12.960;2023-02-15T07:13:57;6.30;;;2.60;;
70433;SDS011;57876;47.792;12.960;2023-02-15T07:16:21;6.80;;;2.72;;
70433;SDS011;57876;47.792;12.960;2023-02-15T07:18:45;6.83;;;2.67;;
70433;SDS011;57876;47.792;12.960;2023-02-15T07:21:10;6.63;;;2.50;;
70433;SDS011;57876;47.792;12.960;2023-02-15T07:23:35;6.97;;;2.67;;
70433;SDS011;57876;47.792;12.960;2023-02-15T07:26:00;6.38;;;2.60;;
70433;SDS011;57876;47.792;12.960;2023-02-15T07:28:25;6.93;;;2.63;;
70433;SDS011;57876;47.792;12.960;2023-02-15T07:30:50;7.13;;;2.70;;
70433;SDS011;57876;47.792;12.960;2023-02-15T07:33:14;6.47;;;2.50;;
70433;SDS011;57876;47.792;12.960;2023-02-15T07:35:51;6.68;;;2.67;;
70433;SDS011;57876;47.792;12.960;2023-02-15T07:38:21;6.83;;;2.80;;
70433;SDS011;57876;47.792;12.960;2023-02-15T07:40:45;7.13;;;3.17;;
70433;SDS011;57876;47.792;12.960;2023-02-15T07:43:10;7.13;;;2.93;;
70433;SDS011;57876;47.792;12.960;2023-02-15T07:45:34;7.10;;;3.10;;
70433;SDS011;57876;47.792;12.960;2023-02-15T07:48:02;7.83;;;3.10;;
70433;SDS011;57876;47.792;12.960;2023-02-15T07:50:27;7.28;;;3.38;;
70433;SDS011;57876;47.792;12.960;2023-02-15T07:52:51;7.60;;;2.80;;
70433;SDS011;57876;47.792;12.960;2023-02-15T07:55:16;6.40;;;2.70;;
70433;SDS011;57876;47.792;12.960;2023-02-15T07:57:43;7.47;;;3.20;;
70433;SDS011;57876;47.792;12.960;2023-02-15T08:00:09;7.03;;;2.88;;
70433;SDS011;57876;47.792;12.960;2023-02-15T08:02:35;6.93;;;2.97;;
70433;SDS011;57876;47.792;12.960;2023-02-15T08:05:01;7.40;;;3.05;;
70433;SDS011;57876;47.792;12.960;2023-02-15T08:07:25;7.37;;;3.10;;
70433;SDS011;57876;47.792;12.960;2023-02-15T08:09:49;6.87;;;2.90;;
70433;SDS011;57876;47.792;12.960;2023-02-15T08:12:14;7.40;;;3.20;;
70433;SDS011;57876;47.792;12.960;2023-02-15T08:14:38;7.83;;;3.20;;
70433;SDS011;57876;47.792;12.960;2023-02-15T08:17:02;6.60;;;2.53;;
70433;SDS011;57876;47.792;12.960;2023-02-15T08:19:29;6.80;;;2.97;;
70433;SDS011;57876;47.792;12.960;2023-02-15T08:22:03;5.93;;;2.60;;
70433;SDS011;57876;47.792;12.960;2023-02-15T08:24:30;6.90;;;2.90;;
70433;SDS011;57876;47.792;12.960;2023-02-15T08:26:56;6.97;;;3.08;;
70433;SDS011;57876;47.792;12.960;2023-02-15T08:29:30;6.40;;;2.90;;
70433;SDS011;57876;47.792;12.960;2023-02-15T08:31:57;6.95;;;2.88;;
70433;SDS011;57876;47.792;12.960;2023-02-15T08:34:26;6.68;;;2.47;;
70433;SDS011;57876;47.792;12.960;2023-02-15T08:36:52;6.97;;;2.70;;
70433;SDS011;57876;47.792;12.960;2023-02-15T08:39:16;6.40;;;2.70;;
70433;SDS011;57876;47.792;12.960;2023-02-15T08:41:41;6.80;;;2.77;;
70433;SDS011;57876;47.792;12.960;2023-02-15T08:44:07;7.05;;;2.97;;
70433;SDS011;57876;47.792;12.960;2023-02-15T08:46:33;7.60;;;2.70;;
70433;SDS011;57876;47.792;12.960;2023-02-15T08:49:00;6.20;;;2.65;;
70433;SDS011;57876;47.792;12.960;2023-02-15T08:51:25;6.77;;;2.67;;
70433;SDS011;57876;47.792;12.960;2023-02-15T08:53:52;7.07;;;2.75;;
70433;SDS011;57876;47.792;12.960;2023-02-15T08:56:19;7.30;;;3.00;;
70433;SDS011;57876;47.792;12.960;2023-02-15T08:58:48;6.37;;;2.57;;
70433;SDS011;57876;47.792;12.960;2023-02-15T09:01:18;6.68;;;2.80;;
70433;SDS011;57876;47.792;12.960;2023-02-15T09:03:47;6.28;;;2.53;;
70433;SDS011;57876;47.792;12.960;2023-02-15T09:06:14;6.30;;;2.40;;
70433;SDS011;57876;47.792;12.960;2023-02-15T09:08:39;6.50;;;2.65;;
70433;SDS011;57876;47.792;12.960;2023-02-15T09:11:13;6.37;;;2.70;;
70433;SDS011;57876;47.792;12.960;2023-02-15T09:13:46;5.90;;;2.40;;
70433;SDS011;57876;47.792;12.960;2023-02-15T09:16:10;7.37;;;2.80;;
70433;SDS011;57876;47.792;12.960;2023-02-15T09:18:36;6.90;;;2.60;;
70433;SDS011;57876;47.792;12.960;2023-02-15T09:21:08;6.55;;;2.60;;
70433;SDS011;57876;47.792;12.960;2023-02-15T09:23:35;6.78;;;2.83;;
70433;SDS011;57876;47.792;12.960;2023-02-15T09:26:03;7.47;;;2.87;;
70433;SDS011;57876;47.792;12.960;2023-02-15T09:28:29;6.70;;;2.95;;
70433;SDS011;57876;47.792;12.960;2023-02-15T09:30:54;6.82;;;2.85;;
70433;SDS011;57876;47.792;12.960;2023-02-15T09:33:19;6.07;;;2.40;;
70433;SDS011;57876;47.792;12.960;2023-02-15T09:35:43;6.77;;;2.60;;
70433;SDS011;57876;47.792;12.960;2023-02-15T09:38:08;6.57;;;2.50;;
70433;SDS011;57876;47.792;12.960;2023-02-15T09:40:35;6.53;;;2.33;;
70433;SDS011;57876;47.792;12.960;2023-02-15T09:43:09;6.43;;;2.60;;
70433;SDS011;57876;47.792;12.960;2023-02-15T09:45:45;6.55;;;2.65;;
70433;SDS011;57876;47.792;12.960;2023-02-15T09:54:09;5.73;;;2.60;;
70433;SDS011;57876;47.792;12.960;2023-02-15T09:56:51;6.47;;;2.38;;
70433;SDS011;57876;47.792;12.960;2023-02-15T10:10:25;5.43;;;2.45;;
70433;SDS011;57876;47.792;12.960;2023-02-15T10:12:55;6.57;;;2.47;;
70433;SDS011;57876;47.792;12.960;2023-02-15T10:26:16;5.82;;;2.47;;
70433;SDS011;57876;47.792;12.960;2023-02-15T10:31:14;5.70;;;2.30;;
70433;SDS011;57876;47.792;12.960;2023-02-15T10:33:40;6.05;;;2.55;;
70433;SDS011;57876;47.792;12.960;2023-02-15T10:53:30;7.15;;;2.53;;
70433;SDS011;57876;47.792;12.960;2023-02-15T10:59:32;5.88;;;2.33;;
70433;SDS011;57876;47.792;12.960;2023-02-15T11:04:51;5.78;;;2.50;;
70433;SDS011;57876;47.792;12.960;2023-02-15T11:07:40;5.93;;;2.30;;
70433;SDS011;57876;47.792;12.960;2023-02-15T11:12:37;5.53;;;2.40;;
70433;SDS011;57876;47.792;12.960;2023-02-15T11:15:11;6.28;;;2.75;;
70433;SDS011;57876;47.792;12.960;2023-02-15T11:17:43;6.25;;;2.70;;
70433;SDS011;57876;47.792;12.960;2023-02-15T11:20:33;6.57;;;2.53;;
70433;SDS011;57876;47.792;12.960;2023-02-15T11:23:02;5.93;;;2.40;;
70433;SDS011;57876;47.792;12.960;2023-02-15T11:25:30;6.80;;;2.40;;
70433;SDS011;57876;47.792;12.960;2023-02-15T11:27:57;5.83;;;2.43;;
70433;SDS011;57876;47.792;12.960;2023-02-15T11:30:25;6.30;;;2.50;;
70433;SDS011;57876;47.792;12.960;2023-02-15T11:32:58;7.05;;;3.20;;
70433;SDS011;57876;47.792;12.960;2023-02-15T11:35:30;14.82;;;4.72;;
70433;SDS011;57876;47.792;12.960;2023-02-15T11:38:02;14.95;;;4.82;;
70433;SDS011;57876;47.792;12.960;2023-02-15T11:40:40;11.53;;;4.13;;
70433;SDS011;57876;47.792;12.960;2023-02-15T11:43:14;11.07;;;3.88;;
70433;SDS011;57876;47.792;12.960;2023-02-15T11:46:02;12.43;;;3.75;;
70433;SDS011;57876;47.792;12.960;2023-02-15T11:48:27;10.73;;;3.80;;
70433;SDS011;57876;47.792;12.960;2023-02-15T11:50:54;9.25;;;3.65;;
70433;SDS011;57876;47.792;12.960;2023-02-15T11:53:20;11.17;;;3.50;;
70433;SDS011;57876;47.792;12.960;2023-02-15T11:55:48;11.00;;;3.65;;
70433;SDS011;57876;47.792;12.960;2023-02-15T12:00:40;8.63;;;3.17;;
70433;SDS011;57876;47.792;12.960;2023-02-15T12:03:14;13.03;;;3.90;;
70433;SDS011;57876;47.792;12.960;2023-02-15T12:05:44;11.18;;;3.35;;
70433;SDS011;57876;47.792;12.960;2023-02-15T12:08:20;14.00;;;3.90;;
70433;SDS011;57876;47.792;12.960;2023-02-15T12:11:19;11.30;;;3.70;;
70433;SDS011;57876;47.792;12.960;2023-02-15T12:13:59;12.85;;;5.22;;
70433;SDS011;57876;47.792;12.960;2023-02-15T12:16:26;11.73;;;5.00;;
70433;SDS011;57876;47.792;12.960;2023-02-15T12:18:53;11.52;;;4.55;;
70433;SDS011;57876;47.792;12.960;2023-02-15T12:21:25;10.27;;;5.75;;
70433;SDS011;57876;47.792;12.960;2023-02-15T12:24:03;11.57;;;5.20;;
70433;SDS011;57876;47.792;12.960;2023-02-15T12:26:37;11.38;;;5.55;;
70433;SDS011;57876;47.792;12.960;2023-02-15T12:29:07;12.17;;;4.90;;
70433;SDS011;57876;47.792;12.960;2023-02-15T12:31:39;10.57;;;4.85;;
70433;SDS011;57876;47.792;12.960;2023-02-15T12:34:22;8.45;;;3.97;;
70433;SDS011;57876;47.792;12.960;2023-02-15T12:36:53;9.38;;;4.03;;
70433;SDS011;57876;47.792;12.960;2023-02-15T12:39:24;8.30;;;3.77;;
70433;SDS011;57876;47.792;12.960;2023-02-15T12:44:19;9.90;;;3.67;;
70433;SDS011;57876;47.792;12.960;2023-02-15T12:47:01;7.32;;;3.42;;
70433;SDS011;57876;47.792;12.960;2023-02-15T12:49:31;10.88;;;3.63;;
70433;SDS011;57876;47.792;12.960;2023-02-15T12:52:01;10.23;;;4.10;;
70433;SDS011;57876;47.792;12.960;2023-02-15T12:54:41;8.20;;;3.60;;
70433;SDS011;57876;47.792;12.960;2023-02-15T12:59:50;7.13;;;3.10;;
70433;SDS011;57876;47.792;12.960;2023-02-15T13:02:19;9.18;;;3.45;;
70433;SDS011;57876;47.792;12.960;2023-02-15T13:04:48;7.78;;;3.40;;
70433;SDS011;57876;47.792;12.960;2023-02-15T13:07:14;8.30;;;3.38;;
70433;SDS011;57876;47.792;12.960;2023-02-15T13:09:38;8.23;;;3.40;;
70433;SDS011;57876;47.792;12.960;2023-02-15T13:14:42;7.60;;;3.13;;
70433;SDS011;57876;47.792;12.960;2023-02-15T13:17:09;7.23;;;2.93;;
70433;SDS011;57876;47.792;12.960;2023-02-15T13:22:12;6.28;;;2.90;;
70433;SDS011;57876;47.792;12.960;2023-02-15T13:24:45;6.78;;;2.90;;
70433;SDS011;57876;47.792;12.960;2023-02-15T13:27:12;7.20;;;2.80;;
70433;SDS011;57876;47.792;12.960;2023-02-15T13:29:41;6.63;;;3.00;;
70433;SDS011;57876;47.792;12.960;2023-02-15T13:34:56;7.63;;;3.08;;
70433;SDS011;57876;47.792;12.960;2023-02-15T13:42:37;7.50;;;2.73;;
70433;SDS011;57876;47.792;12.960;2023-02-15T13:45:13;6.93;;;2.88;;
70433;SDS011;57876;47.792;12.960;2023-02-15T13:47:55;6.97;;;2.72;;
70433;SDS011;57876;47.792;12.960;2023-02-15T13:54:07;6.30;;;2.55;;
70433;SDS011;57876;47.792;12.960;2023-02-15T14:11:06;6.60;;;2.43;;
70433;SDS011;57876;47.792;12.960;2023-02-15T14:13:55;7.15;;;2.80;;
70433;SDS011;57876;47.792;12.960;2023-02-15T14:16:28;6.00;;;2.50;;
70433;SDS011;57876;47.792;12.960;2023-02-15T14:18:59;6.35;;;2.55;;
70433;SDS011;57876;47.792;12.960;2023-02-15T14:24:23;9.67;;;2.63;;
70433;SDS011;57876;47.792;12.960;2023-02-15T14:29:46;7.13;;;3.00;;
70433;SDS011;57876;47.792;12.960;2023-02-15T14:32:13;6.70;;;2.90;;
70433;SDS011;57876;47.792;12.960;2023-02-15T14:34:51;7.68;;;3.00;;
70433;SDS011;57876;47.792;12.960;2023-02-15T14:37:20;7.73;;;3.20;;
70433;SDS011;57876;47.792;12.960;2023-02-15T14:43:31;6.60;;;2.50;;
70433;SDS011;57876;47.792;12.960;2023-02-15T14:46:21;6.32;;;2.40;;
70433;SDS011;57876;47.792;12.960;2023-02-15T14:48:49;7.10;;;2.63;;
70433;SDS011;57876;47.792;12.960;2023-02-15T14:56:45;6.60;;;2.60;;
70433;SDS011;57876;47.792;12.960;2023-02-15T15:01:50;6.35;;;2.60;;
70433;SDS011;57876;47.792;12.960;2023-02-15T15:04:27;5.83;;;2.23;;
70433;SDS011;57876;47.792;12.960;2023-02-15T15:09:31;5.30;;;2.22;;
70433;SDS011;57876;47.792;12.960;2023-02-15T15:14:45;6.50;;;2.47;;
70433;SDS011;57876;47.792;12.960;2023-02-15T15:17:10;5.27;;;2.00;;
70433;SDS011;57876;47.792;12.960;2023-02-15T15:22:19;6.47;;;2.20;;
70433;SDS011;57876;47.792;12.960;2023-02-15T15:24:48;7.28;;;2.70;;
70433;SDS011;57876;47.792;12.960;2023-02-15T15:35:13;5.63;;;2.17;;
70433;SDS011;57876;47.792;12.960;2023-02-15T15:49:08;11.18;;;5.20;;
70433;SDS011;57876;47.792;12.960;2023-02-15T15:51:38;10.55;;;4.80;;
70433;SDS011;57876;47.792;12.960;2023-02-15T15:54:04;10.68;;;4.70;;
70433;SDS011;57876;47.792;12.960;2023-02-15T15:56:29;13.20;;;5.07;;
70433;SDS011;57876;47.792;12.960;2023-02-15T15:59:02;8.60;;;3.83;;
70433;SDS011;57876;47.792;12.960;2023-02-15T16:01:46;10.47;;;4.23;;
70433;SDS011;57876;47.792;12.960;2023-02-15T16:04:12;9.57;;;3.97;;
70433;SDS011;57876;47.792;12.960;2023-02-15T16:06:38;8.70;;;3.92;;
70433;SDS011;57876;47.792;12.960;2023-02-15T16:09:18;9.18;;;3.67;;
70433;SDS011;57876;47.792;12.960;2023-02-15T16:11:45;9.57;;;4.22;;
70433;SDS011;57876;47.792;12.960;2023-02-15T16:14:16;8.47;;;3.80;;
70433;SDS011;57876;47.792;12.960;2023-02-15T16:16:48;9.75;;;3.80;;
70433;SDS011;57876;47.792;12.960;2023-02-15T16:19:20;8.00;;;3.33;;
70433;SDS011;57876;47.792;12.960;2023-02-15T16:21:48;9.40;;;3.33;;
70433;SDS011;57876;47.792;12.960;2023-02-15T16:32:41;7.28;;;2.75;;
70433;SDS011;57876;47.792;12.960;2023-02-15T16:35:13;7.20;;;3.30;;
70433;SDS011;57876;47.792;12.960;2023-02-15T16:37:39;8.80;;;3.65;;
70433;SDS011;57876;47.792;12.960;2023-02-15T16:40:04;7.53;;;3.10;;
70433;SDS011;57876;47.792;12.960;2023-02-15T16:42:29;7.70;;;3.28;;
70433;SDS011;57876;47.792;12.960;2023-02-15T16:44:59;7.73;;;3.00;;
70433;SDS011;57876;47.792;12.960;2023-02-15T16:47:32;6.47;;;3.08;;
70433;SDS011;57876;47.792;12.960;2023-02-15T16:50:04;7.78;;;3.25;;
70433;SDS011;57876;47.792;12.960;2023-02-15T16:52:29;6.15;;;2.72;;
70433;SDS011;57876;47.792;12.960;2023-02-15T16:54:55;8.33;;;3.00;;
70433;SDS011;57876;47.792;12.960;2023-02-15T16:57:32;7.50;;;2.90;;
70433;SDS011;57876;47.792;12.960;2023-02-15T17:00:06;6.80;;;2.70;;
70433;SDS011;57876;47.792;12.960;2023-02-15T17:02:40;6.78;;;2.70;;
70433;SDS011;57876;47.792;12.960;2023-02-15T17:05:18;6.80;;;3.10;;
70433;SDS011;57876;47.792;12.960;2023-02-15T17:07:52;6.25;;;2.60;;
70433;SDS011;57876;47.792;12.960;2023-02-15T17:10:40;7.00;;;2.77;;
70433;SDS011;57876;47.792;12.960;2023-02-15T17:13:10;6.85;;;2.92;;
70433;SDS011;57876;47.792;12.960;2023-02-15T17:15:45;6.57;;;2.58;;
70433;SDS011;57876;47.792;12.960;2023-02-15T17:18:31;6.90;;;2.63;;
70433;SDS011;57876;47.792;12.960;2023-02-15T17:21:12;5.75;;;2.60;;
70433;SDS011;57876;47.792;12.960;2023-02-15T17:23:41;6.20;;;2.40;;
70433;SDS011;57876;47.792;12.960;2023-02-15T17:26:16;6.93;;;2.60;;
70433;SDS011;57876;47.792;12.960;2023-02-15T17:28:45;7.00;;;2.60;;
70433;SDS011;57876;47.792;12.960;2023-02-15T17:31:12;7.18;;;2.63;;
70433;SDS011;57876;47.792;12.960;2023-02-15T17:33:39;6.07;;;2.50;;
70433;SDS011;57876;47.792;12.960;2023-02-15T17:36:17;6.40;;;2.57;;
70433;SDS011;57876;47.792;12.960;2023-02-15T17:39:00;6.65;;;2.92;;
70433;SDS011;57876;47.792;12.960;2023-02-15T17:41:29;7.60;;;2.85;;
70433;SDS011;57876;47.792;12.960;2023-02-15T17:43:54;6.03;;;2.43;;
70433;SDS011;57876;47.792;12.960;2023-02-15T17:46:20;6.90;;;2.60;;
70433;SDS011;57876;47.792;12.960;2023-02-15T17:48:48;6.30;;;2.50;;